Terminal Aerodrome Forecast
Issued by NWS Twin Cities, MN

Home | Current Version | Previous Version | Text Only | Print | Product List | Glossary On
Versions: 1 2 3 4 5 6 7 8 9 10 11 12 13 14 15 16 17 18 19 20 21 22 23 24 25
000
FTUS43 KMPX 201800 AAA
TAFEAU
TAF AMD
KEAU 201844Z 2019/2118 10005KT P6SM SCT028
      TEMPO 2019/2023 BKN028
     FM210500 13007KT P6SM VCSH SCT015 BKN070
      TEMPO 2107/2110 4SM TSRA SCT008 OVC050CB
     FM211000 12009KT 2SM BR VCSH SCT003 OVC025
      TEMPO 2113/2117 -TSRA BR BKN003 OVC020CB=

USA.gov is the U.S. government's official web portal to all federal, state and local government web resources and services.